Time;durP1;ratioP1;P1;durP2;ratioP2;P2;SDS_P1;SDS_P2;PMS_P1;PMS_P2;Temp;Humidity;BMP_temperature;BMP_pressure;BME280_temperature;BME280_humidity;BME280_pressure;Samples;Min_cycle;Max_cycle;Signal;HPM_P1;HPM_P2
2021/04/12 00:00:28;;;;;;;5.00;4.07;;;;;;;;;;2046010;28;20260;-60
2021/04/12 00:01:44;;;;;;;5.30;4.07;;;;;;;;;;2051533;28;20198;-58
2021/04/12 00:02:47;;;;;;;4.90;4.50;;;;;;;;;;2056127;28;20777;-62
2021/04/12 00:03:59;;;;;;;5.00;4.60;;;;;;;;;;2048299;28;20432;-61
2021/04/12 00:05:25;;;;;;;6.10;5.00;;;;;;;;;;2049127;28;20425;-61
2021/04/12 00:06:29;;;;;;;5.93;4.70;;;;;;;;;;2033050;29;20783;-60
2021/04/12 00:07:33;;;;;;;5.30;4.90;;;;;;;;;;2048496;28;20617;-61
2021/04/12 00:08:33;;;;;;;6.87;5.50;;;;;;;;;;2054918;28;20190;-61
2021/04/12 00:09:41;;;;;;;6.83;5.00;;;;;;;;;;2050259;28;20178;-62
2021/04/12 00:11:00;;;;;;;7.30;4.87;;;;;;;;;;2056176;28;20547;-55
2021/04/12 00:12:08;;;;;;;7.77;5.30;;;;;;;;;;2054949;28;20717;-61
2021/04/12 00:13:13;;;;;;;5.60;5.10;;;;;;;;;;2048243;28;20636;-61
2021/04/12 00:14:25;;;;;;;7.20;4.70;;;;;;;;;;2047018;28;20206;-58
2021/04/12 00:15:25;;;;;;;5.40;4.80;;;;;;;;;;2055195;28;20233;-59
2021/04/12 00:16:25;;;;;;;10.87;5.83;;;;;;;;;;2050863;28;20179;-61
2021/04/12 00:17:43;;;;;;;9.17;5.33;;;;;;;;;;2040889;29;20182;-61
2021/04/12 00:18:55;;;;;;;5.93;5.27;;;;;;;;;;2040355;29;20202;-59
2021/04/12 00:20:16;;;;;;;6.40;4.77;;;;;;;;;;2041041;29;20617;-60
2021/04/12 00:21:19;;;;;;;7.40;5.83;;;;;;;;;;2050243;28;20190;-60
2021/04/12 00:22:25;;;;;;;6.67;5.40;;;;;;;;;;2052668;28;20948;-60
2021/04/12 00:23:43;;;;;;;5.67;5.13;;;;;;;;;;2053332;28;20173;-60
2021/04/12 00:24:55;;;;;;;5.50;5.00;;;;;;;;;;2040968;29;20279;-62
2021/04/12 00:25:59;;;;;;;5.47;4.97;;;;;;;;;;2049188;28;20241;-60
2021/04/12 00:27:02;;;;;;;5.17;4.77;;;;;;;;;;2051461;28;20750;-63
2021/04/12 00:28:09;;;;;;;7.80;5.53;;;;;;;;;;2052064;28;20217;-62
2021/04/12 00:29:23;;;;;;;6.97;4.90;;;;;;;;;;2053418;28;20185;-62
2021/04/12 00:30:23;;;;;;;5.17;4.77;;;;;;;;;;2046729;29;20564;-60
2021/04/12 00:31:32;;;;;;;6.07;5.23;;;;;;;;;;2053179;28;20225;-62
2021/04/12 00:32:34;;;;;;;5.80;4.83;;;;;;;;;;2051000;28;20187;-62
2021/04/12 00:33:37;;;;;;;5.10;4.60;;;;;;;;;;2048381;28;20854;-61
2021/04/12 00:34:53;;;;;;;6.60;4.73;;;;;;;;;;2048216;28;20175;-61
2021/04/12 00:35:59;;;;;;;6.57;5.23;;;;;;;;;;2041227;28;20179;-60
2021/04/12 00:37:02;;;;;;;6.13;5.57;;;;;;;;;;2056364;28;20179;-58
2021/04/12 00:38:16;;;;;;;5.20;4.70;;;;;;;;;;2044475;28;20185;-60
2021/04/12 00:39:21;;;;;;;7.40;4.70;;;;;;;;;;2056633;28;20916;-61
2021/04/12 00:40:36;;;;;;;6.17;4.83;;;;;;;;;;2055395;28;20420;-61
2021/04/12 00:41:55;;;;;;;5.77;5.20;;;;;;;;;;2051152;28;20207;-59
2021/04/12 00:42:55;;;;;;;5.77;4.93;;;;;;;;;;2040855;29;20175;-60
2021/04/12 00:44:10;;;;;;;9.03;4.80;;;;;;;;;;2045624;29;20266;-60
2021/04/12 00:45:11;;;;;;;5.77;4.73;;;;;;;;;;2045830;29;20175;-59
2021/04/12 00:46:23;;;;;;;5.10;4.63;;;;;;;;;;2041084;29;20793;-60
2021/04/12 00:47:34;;;;;;;5.33;4.83;;;;;;;;;;2048515;28;20798;-63
2021/04/12 00:48:52;;;;;;;7.20;4.77;;;;;;;;;;2048866;28;20389;-61
2021/04/12 00:50:04;;;;;;;5.00;4.50;;;;;;;;;;2044217;28;20190;-61
2021/04/12 00:51:11;;;;;;;5.20;4.70;;;;;;;;;;2047848;28;20229;-62
2021/04/12 00:52:30;;;;;;;10.90;4.73;;;;;;;;;;2042246;28;20587;-61
2021/04/12 00:53:33;;;;;;;5.07;4.40;;;;;;;;;;2056034;28;20252;-62
2021/04/12 00:54:37;;;;;;;5.70;4.50;;;;;;;;;;2056283;28;20435;-61
2021/04/12 00:55:43;;;;;;;6.17;4.83;;;;;;;;;;2049116;28;20180;-61
2021/04/12 00:56:47;;;;;;;8.97;4.83;;;;;;;;;;2040363;29;20223;-61
2021/04/12 00:58:14;;;;;;;5.17;4.63;;;;;;;;;;2032711;29;20295;-60
2021/04/12 00:59:25;;;;;;;4.73;4.40;;;;;;;;;;2038884;29;20565;-60
2021/04/12 01:00:27;;;;;;;5.57;4.40;;;;;;;;;;2043475;28;21640;-61
2021/04/12 01:01:40;;;;;;;5.93;4.43;;;;;;;;;;2045614;28;20428;-59
2021/04/12 01:02:59;;;;;;;6.83;4.70;;;;;;;;;;2048445;29;20844;-62
2021/04/12 01:04:00;;;;;;;4.63;4.23;;;;;;;;;;2043862;28;20401;-60
2021/04/12 01:05:17;;;;;;;9.10;4.33;;;;;;;;;;2050240;28;20421;-61
2021/04/12 01:06:33;;;;;;;8.90;4.40;;;;;;;;;;2049501;28;20431;-63
2021/04/12 01:07:47;;;;;;;7.67;5.00;;;;;;;;;;2047719;28;20452;-61
2021/04/12 01:08:48;;;;;;;5.20;4.70;;;;;;;;;;2050216;28;20398;-61
2021/04/12 01:10:03;;;;;;;5.10;4.60;;;;;;;;;;2050416;28;20807;-62
2021/04/12 01:11:22;;;;;;;5.67;4.13;;;;;;;;;;2050239;28;20431;-61
2021/04/12 01:12:37;;;;;;;6.00;4.57;;;;;;;;;;2042014;29;20266;-58
2021/04/12 01:13:43;;;;;;;5.20;4.10;;;;;;;;;;2042058;29;20719;-62
2021/04/12 01:14:49;;;;;;;5.27;4.77;;;;;;;;;;2041684;29;20266;-60
2021/04/12 01:16:02;;;;;;;5.37;4.87;;;;;;;;;;2049146;28;20456;-61
2021/04/12 01:17:20;;;;;;;6.60;4.37;;;;;;;;;;2052729;28;20898;-63
2021/04/12 01:18:39;;;;;;;5.30;4.80;;;;;;;;;;2047176;28;20174;-63
2021/04/12 01:19:51;;;;;;;6.13;5.53;;;;;;;;;;2050770;28;20179;-61
2021/04/12 01:20:51;;;;;;;4.80;4.30;;;;;;;;;;2042027;29;20982;-61
2021/04/12 01:22:10;;;;;;;5.00;4.53;;;;;;;;;;2042343;29;20433;-62
2021/04/12 01:23:30;;;;;;;5.00;4.60;;;;;;;;;;2049127;28;20167;-63
2021/04/12 01:24:41;;;;;;;4.70;4.23;;;;;;;;;;2047359;29;20460;-58
2021/04/12 01:26:00;;;;;;;4.80;4.23;;;;;;;;;;2042374;29;20189;-62
2021/04/12 01:27:39;;;;;;;5.90;4.37;;;;;;;;;;2042179;29;20179;-61
2021/04/12 01:28:42;;;;;;;5.00;4.17;;;;;;;;;;2024212;29;20185;-61
2021/04/12 01:29:45;;;;;;;6.70;4.67;;;;;;;;;;2025523;29;20442;-61
2021/04/12 01:30:56;;;;;;;6.43;4.80;;;;;;;;;;2017163;29;20488;-60
2021/04/12 01:32:05;;;;;;;5.23;4.60;;;;;;;;;;2012426;29;20174;-57
2021/04/12 01:33:20;;;;;;;5.13;4.60;;;;;;;;;;2024747;29;20432;-60
2021/04/12 01:34:32;;;;;;;4.80;4.40;;;;;;;;;;2042425;28;20908;-61
2021/04/12 01:35:42;;;;;;;4.70;4.20;;;;;;;;;;2052125;28;20572;-59
2021/04/12 01:36:52;;;;;;;7.03;4.50;;;;;;;;;;2052982;28;20504;-60
2021/04/12 01:38:05;;;;;;;5.30;4.30;;;;;;;;;;2048542;28;20464;-61
2021/04/12 01:39:12;;;;;;;6.33;4.40;;;;;;;;;;2042006;29;20464;-62
2021/04/12 01:40:30;;;;;;;4.70;4.30;;;;;;;;;;2041537;29;20882;-59
2021/04/12 01:41:46;;;;;;;6.13;5.07;;;;;;;;;;2041404;29;20489;-61
2021/04/12 01:42:48;;;;;;;6.23;4.80;;;;;;;;;;2057766;28;20400;-58
2021/04/12 01:44:03;;;;;;;4.93;4.50;;;;;;;;;;2049581;28;20425;-57
2021/04/12 01:45:15;;;;;;;4.90;4.43;;;;;;;;;;2043062;29;20460;-55
2021/04/12 01:46:19;;;;;;;4.73;4.40;;;;;;;;;;2051700;28;20423;-60
2021/04/12 01:47:23;;;;;;;5.33;4.83;;;;;;;;;;2052874;28;20424;-60
2021/04/12 01:48:41;;;;;;;5.27;4.87;;;;;;;;;;2052528;28;20182;-59
2021/04/12 01:49:47;;;;;;;5.43;4.93;;;;;;;;;;2055689;28;20419;-61
2021/04/12 01:50:50;;;;;;;6.50;4.60;;;;;;;;;;2049908;28;20476;-62
2021/04/12 01:52:19;;;;;;;5.63;4.67;;;;;;;;;;2041754;28;20203;-60
2021/04/12 01:53:40;;;;;;;6.40;4.73;;;;;;;;;;2040285;28;20421;-61
2021/04/12 01:54:43;;;;;;;5.83;4.63;;;;;;;;;;2052689;28;20435;-62
2021/04/12 01:55:47;;;;;;;5.37;4.67;;;;;;;;;;2057043;28;20174;-61
2021/04/12 01:56:58;;;;;;;5.00;4.57;;;;;;;;;;2049322;28;20429;-61
2021/04/12 01:58:19;;;;;;;6.70;4.40;;;;;;;;;;2043862;28;20394;-62
2021/04/12 01:59:39;;;;;;;5.40;5.00;;;;;;;;;;2053849;28;20440;-59
2021/04/12 02:01:00;;;;;;;5.77;5.07;;;;;;;;;;2057064;28;20489;-59
2021/04/12 02:02:17;;;;;;;7.47;4.87;;;;;;;;;;2045331;28;20498;-61
2021/04/12 02:03:26;;;;;;;5.27;4.73;;;;;;;;;;2041588;29;20438;-60
2021/04/12 02:04:42;;;;;;;6.33;4.83;;;;;;;;;;2054724;28;20194;-59
2021/04/12 02:05:54;;;;;;;7.20;5.67;;;;;;;;;;2050676;28;20394;-57
2021/04/12 02:07:12;;;;;;;6.60;5.10;;;;;;;;;;2046402;29;20479;-60
2021/04/12 02:08:25;;;;;;;6.73;5.40;;;;;;;;;;2049264;28;20484;-58
2021/04/12 02:09:43;;;;;;;5.57;5.07;;;;;;;;;;2049201;28;20382;-60
2021/04/12 02:10:43;;;;;;;6.60;4.70;;;;;;;;;;2051760;28;20416;-59
2021/04/12 02:11:53;;;;;;;8.87;5.27;;;;;;;;;;2047802;28;20430;-59
2021/04/12 02:12:54;;;;;;;8.43;5.23;;;;;;;;;;2042802;28;20539;-60
2021/04/12 02:14:13;;;;;;;8.87;5.13;;;;;;;;;;2046863;28;20428;-59
2021/04/12 02:15:32;;;;;;;8.00;5.40;;;;;;;;;;2049368;28;20208;-58
2021/04/12 02:16:32;;;;;;;6.83;5.40;;;;;;;;;;2046746;29;20416;-55
2021/04/12 02:17:35;;;;;;;5.60;5.10;;;;;;;;;;2049029;29;20693;-59
2021/04/12 02:18:54;;;;;;;5.57;5.07;;;;;;;;;;2048507;29;20194;-61
2021/04/12 02:20:13;;;;;;;5.90;5.47;;;;;;;;;;2041166;29;20422;-61
2021/04/12 02:21:23;;;;;;;7.20;5.20;;;;;;;;;;2042396;29;20517;-57
2021/04/12 02:22:41;;;;;;;8.90;5.30;;;;;;;;;;2054181;28;20408;-55
2021/04/12 02:23:44;;;;;;;5.33;4.90;;;;;;;;;;2043599;28;20406;-55
2021/04/12 02:24:57;;;;;;;5.87;5.23;;;;;;;;;;2056982;28;20778;-58
2021/04/12 02:26:04;;;;;;;7.30;5.60;;;;;;;;;;2056231;28;20426;-56
2021/04/12 02:27:14;;;;;;;6.87;5.90;;;;;;;;;;2050156;28;20417;-60
2021/04/12 02:28:38;;;;;;;6.27;5.67;;;;;;;;;;2048676;28;20429;-59
2021/04/12 02:30:02;;;;;;;6.97;5.03;;;;;;;;;;2050426;28;20431;-56
2021/04/12 02:31:21;;;;;;;6.37;5.23;;;;;;;;;;2046740;28;21292;-58
2021/04/12 02:32:42;;;;;;;6.10;5.60;;;;;;;;;;2052786;23;20556;-55
2021/04/12 02:33:44;;;;;;;6.67;5.60;;;;;;;;;;2039524;29;20413;-56
2021/04/12 02:34:48;;;;;;;8.97;5.73;;;;;;;;;;2040285;29;20406;-55
2021/04/12 02:36:04;;;;;;;7.97;5.63;;;;;;;;;;2040133;29;20520;-57
2021/04/12 02:37:26;;;;;;;5.70;5.10;;;;;;;;;;2040378;29;20445;-55
2021/04/12 02:38:29;;;;;;;7.00;5.43;;;;;;;;;;2040906;29;20465;-57
2021/04/12 02:39:37;;;;;;;9.27;5.83;;;;;;;;;;2027163;29;20915;-54
2021/04/12 02:40:56;;;;;;;6.93;5.27;;;;;;;;;;2033393;29;20422;-57
2021/04/12 02:42:06;;;;;;;5.33;4.90;;;;;;;;;;2039313;29;20528;-57
2021/04/12 02:43:25;;;;;;;5.83;5.33;;;;;;;;;;2045901;29;20442;-56
2021/04/12 02:44:28;;;;;;;5.73;5.27;;;;;;;;;;2048569;29;20400;-56
2021/04/12 02:45:40;;;;;;;5.97;5.47;;;;;;;;;;2048746;29;20413;-58
2021/04/12 02:46:59;;;;;;;10.53;5.97;;;;;;;;;;2047425;29;20504;-58
2021/04/12 02:48:06;;;;;;;7.20;6.00;;;;;;;;;;2035617;29;20474;-58
2021/04/12 02:49:13;;;;;;;6.73;6.00;;;;;;;;;;2047573;29;20409;-55
2021/04/12 02:50:35;;;;;;;7.33;5.87;;;;;;;;;;2038263;29;20441;-57
2021/04/12 02:51:35;;;;;;;8.50;6.60;;;;;;;;;;2045676;29;20456;-58
2021/04/12 02:52:54;;;;;;;7.47;5.97;;;;;;;;;;2043492;28;20441;-57
2021/04/12 02:54:03;;;;;;;8.67;6.30;;;;;;;;;;2037149;29;20197;-57
2021/04/12 02:55:12;;;;;;;6.40;5.77;;;;;;;;;;2046223;28;20434;-58
2021/04/12 02:56:15;;;;;;;6.87;6.10;;;;;;;;;;2039133;29;20405;-58
2021/04/12 02:57:21;;;;;;;6.83;6.23;;;;;;;;;;2048827;29;20483;-58
2021/04/12 02:58:21;;;;;;;6.70;5.83;;;;;;;;;;2044643;29;20457;-59
2021/04/12 02:59:41;;;;;;;9.77;6.23;;;;;;;;;;2044369;28;20994;-58
2021/04/12 03:00:59;;;;;;;6.07;5.43;;;;;;;;;;2041552;29;20645;-58
2021/04/12 03:02:14;;;;;;;7.00;6.20;;;;;;;;;;2041607;29;20441;-58
2021/04/12 03:03:33;;;;;;;8.47;5.90;;;;;;;;;;2042745;29;20519;-58
2021/04/12 03:04:46;;;;;;;8.93;6.03;;;;;;;;;;2045820;29;20425;-56
2021/04/12 03:05:46;;;;;;;7.17;5.60;;;;;;;;;;2041766;28;20434;-59
2021/04/12 03:06:50;;;;;;;7.00;5.60;;;;;;;;;;2042317;29;20791;-58
2021/04/12 03:08:28;;;;;;;8.00;5.87;;;;;;;;;;2037529;29;20198;-57
2021/04/12 03:09:49;;;;;;;6.33;5.83;;;;;;;;;;2012022;29;20433;-57
2021/04/12 03:10:56;;;;;;;6.67;6.17;;;;;;;;;;2007509;29;20425;-56
2021/04/12 03:11:57;;;;;;;10.30;5.57;;;;;;;;;;2010610;29;20480;-57
2021/04/12 03:13:03;;;;;;;7.90;6.10;;;;;;;;;;2014903;29;20417;-59
2021/04/12 03:14:24;;;;;;;9.03;6.57;;;;;;;;;;2014938;29;20173;-58
2021/04/12 03:15:27;;;;;;;7.63;6.57;;;;;;;;;;2037598;29;20785;-57
2021/04/12 03:16:44;;;;;;;6.57;5.93;;;;;;;;;;2043901;28;20410;-57
2021/04/12 03:18:03;;;;;;;10.13;6.93;;;;;;;;;;2047849;29;20171;-58
2021/04/12 03:19:22;;;;;;;6.93;6.30;;;;;;;;;;2028654;29;20455;-58
2021/04/12 03:20:31;;;;;;;7.23;5.83;;;;;;;;;;2033674;29;20434;-58
2021/04/12 03:21:31;;;;;;;8.80;6.07;;;;;;;;;;2047336;28;20845;-57
2021/04/12 03:22:34;;;;;;;6.63;6.03;;;;;;;;;;2048492;29;20437;-58
2021/04/12 03:23:55;;;;;;;9.23;5.90;;;;;;;;;;2040571;29;20164;-54
2021/04/12 03:25:11;;;;;;;7.10;6.10;;;;;;;;;;2041806;28;20444;-57
2021/04/12 03:26:30;;;;;;;9.50;6.30;;;;;;;;;;2045401;29;20425;-58
2021/04/12 03:27:33;;;;;;;6.80;6.20;;;;;;;;;;2041006;29;20416;-55
2021/04/12 03:28:45;;;;;;;6.83;6.20;;;;;;;;;;2040756;29;20438;-58
2021/04/12 03:30:04;;;;;;;7.60;6.50;;;;;;;;;;2041091;29;20410;-55
2021/04/12 03:31:23;;;;;;;7.17;6.10;;;;;;;;;;2039897;29;20440;-58
2021/04/12 03:32:24;;;;;;;7.43;6.63;;;;;;;;;;2042169;29;20989;-59
2021/04/12 03:33:40;;;;;;;6.93;6.27;;;;;;;;;;2043858;29;20436;-60
2021/04/12 03:34:59;;;;;;;9.57;6.33;;;;;;;;;;2039154;29;20181;-59
2021/04/12 03:36:18;;;;;;;7.87;6.77;;;;;;;;;;2033712;29;20410;-56
2021/04/12 03:37:37;;;;;;;7.53;5.60;;;;;;;;;;2040641;29;20504;-57
2021/04/12 03:38:44;;;;;;;6.70;6.13;;;;;;;;;;2046857;29;20452;-59
2021/04/12 03:39:46;;;;;;;8.30;6.47;;;;;;;;;;2040907;28;20436;-57
2021/04/12 03:41:03;;;;;;;8.07;6.47;;;;;;;;;;2040150;29;20419;-58
2021/04/12 03:42:13;;;;;;;7.57;6.40;;;;;;;;;;2035270;29;20442;-57
2021/04/12 03:43:19;;;;;;;7.73;6.67;;;;;;;;;;2039785;29;20445;-59
2021/04/12 03:44:27;;;;;;;12.60;6.70;;;;;;;;;;2040642;29;20504;-57
2021/04/12 03:45:50;;;;;;;6.37;5.73;;;;;;;;;;2039664;29;20489;-57
2021/04/12 03:47:02;;;;;;;11.33;6.33;;;;;;;;;;2028068;29;20394;-58
2021/04/12 03:48:08;;;;;;;8.30;5.97;;;;;;;;;;2039707;29;20915;-57
2021/04/12 03:49:27;;;;;;;7.10;6.47;;;;;;;;;;2048444;28;20961;-58
2021/04/12 03:50:27;;;;;;;7.40;6.53;;;;;;;;;;2045525;28;20898;-58
2021/04/12 03:51:39;;;;;;;8.77;7.07;;;;;;;;;;2040981;29;20426;-57
2021/04/12 03:52:56;;;;;;;8.00;6.83;;;;;;;;;;2037430;29;20176;-57
2021/04/12 03:54:14;;;;;;;7.17;6.47;;;;;;;;;;2034688;29;20447;-57
2021/04/12 03:55:14;;;;;;;7.60;6.60;;;;;;;;;;2048948;28;20878;-58
2021/04/12 03:56:14;;;;;;;10.60;7.30;;;;;;;;;;2048679;28;20416;-56
2021/04/12 03:57:14;;;;;;;6.63;6.00;;;;;;;;;;2044310;28;20175;-58
2021/04/12 03:58:33;;;;;;;9.13;6.57;;;;;;;;;;2046353;28;20178;-58
2021/04/12 03:59:56;;;;;;;6.50;6.00;;;;;;;;;;2047342;29;20183;-55
2021/04/12 04:01:05;;;;;;;8.33;6.30;;;;;;;;;;2039929;29;20468;-55
2021/04/12 04:02:17;;;;;;;7.50;6.07;;;;;;;;;;2041183;29;20523;-57
2021/04/12 04:03:36;;;;;;;7.37;6.07;;;;;;;;;;2041431;29;20490;-55
2021/04/12 04:04:46;;;;;;;8.97;7.00;;;;;;;;;;2049313;29;20444;-54
2021/04/12 04:05:57;;;;;;;9.73;7.10;;;;;;;;;;2048988;28;20419;-57
2021/04/12 04:07:08;;;;;;;10.83;6.77;;;;;;;;;;2036666;29;20420;-57
2021/04/12 04:08:20;;;;;;;9.37;6.93;;;;;;;;;;2040597;29;20486;-60
2021/04/12 04:09:42;;;;;;;7.07;6.37;;;;;;;;;;2049897;29;20772;-59
2021/04/12 04:10:45;;;;;;;11.10;7.17;;;;;;;;;;2036366;29;20531;-58
2021/04/12 04:11:45;;;;;;;7.20;6.60;;;;;;;;;;2050341;28;20870;-55
2021/04/12 04:13:04;;;;;;;7.90;7.20;;;;;;;;;;2047710;29;20421;-55
2021/04/12 04:14:23;;;;;;;10.50;6.90;;;;;;;;;;2043098;29;20191;-56
2021/04/12 04:15:32;;;;;;;8.37;6.90;;;;;;;;;;2040736;29;20485;-56
2021/04/12 04:16:41;;;;;;;8.17;6.40;;;;;;;;;;2043892;29;20409;-56
2021/04/12 04:17:44;;;;;;;8.10;7.23;;;;;;;;;;2042475;29;20426;-58
2021/04/12 04:18:45;;;;;;;7.87;7.20;;;;;;;;;;2045194;29;20488;-57
2021/04/12 04:20:00;;;;;;;7.50;6.83;;;;;;;;;;2050005;28;20471;-59
2021/04/12 04:21:19;;;;;;;8.20;6.90;;;;;;;;;;2041592;29;20175;-58
2021/04/12 04:22:25;;;;;;;7.87;6.70;;;;;;;;;;2033940;29;20422;-59
2021/04/12 04:23:43;;;;;;;7.63;6.93;;;;;;;;;;2042562;29;20723;-58
2021/04/12 04:24:58;;;;;;;8.37;6.80;;;;;;;;;;2041598;29;20824;-58
2021/04/12 04:26:01;;;;;;;8.00;7.20;;;;;;;;;;2034351;29;20943;-57
2021/04/12 04:27:01;;;;;;;10.87;6.77;;;;;;;;;;2035576;29;20489;-58
2021/04/12 04:28:17;;;;;;;9.50;7.53;;;;;;;;;;2041848;29;20468;-58
2021/04/12 04:29:26;;;;;;;8.10;6.83;;;;;;;;;;2045271;29;20175;-60
2021/04/12 04:30:37;;;;;;;7.03;6.27;;;;;;;;;;2038036;29;20744;-57
2021/04/12 04:31:57;;;;;;;7.07;6.40;;;;;;;;;;2053715;28;20506;-57
2021/04/12 04:33:10;;;;;;;7.63;6.87;;;;;;;;;;2053361;28;20400;-57
2021/04/12 04:34:29;;;;;;;8.90;6.30;;;;;;;;;;2038497;29;20784;-57
2021/04/12 04:35:41;;;;;;;12.10;7.83;;;;;;;;;;2048057;29;20421;-56
2021/04/12 04:36:53;;;;;;;9.87;6.67;;;;;;;;;;2041324;29;20513;-55
2021/04/12 04:38:07;;;;;;;10.23;7.17;;;;;;;;;;2034060;29;20410;-58
2021/04/12 04:39:22;;;;;;;8.97;6.73;;;;;;;;;;2048039;28;20443;-56
2021/04/12 04:40:34;;;;;;;9.50;6.70;;;;;;;;;;2047887;29;20405;-60
2021/04/12 04:41:40;;;;;;;8.20;7.23;;;;;;;;;;2047484;29;20425;-55
2021/04/12 04:42:46;;;;;;;7.37;6.70;;;;;;;;;;2049546;28;20405;-59
2021/04/12 04:43:59;;;;;;;6.80;6.27;;;;;;;;;;2042595;29;20424;-57
2021/04/12 04:45:18;;;;;;;8.37;7.57;;;;;;;;;;2036534;29;20920;-56
2021/04/12 04:46:18;;;;;;;8.10;7.20;;;;;;;;;;2048492;28;20423;-56
2021/04/12 04:47:37;;;;;;;8.73;7.13;;;;;;;;;;2045721;29;20424;-58
2021/04/12 04:48:49;;;;;;;15.50;7.77;;;;;;;;;;2041400;29;20202;-58
2021/04/12 04:50:04;;;;;;;8.27;7.33;;;;;;;;;;2047634;29;20425;-58
2021/04/12 04:51:04;;;;;;;7.20;6.30;;;;;;;;;;2036840;29;20386;-57
2021/04/12 04:52:07;;;;;;;12.70;7.47;;;;;;;;;;2050890;28;20590;-58
2021/04/12 04:53:26;;;;;;;14.63;7.17;;;;;;;;;;2054400;28;20258;-55
2021/04/12 04:54:26;;;;;;;12.73;6.83;;;;;;;;;;2044549;29;20432;-56
2021/04/12 04:55:45;;;;;;;8.17;6.97;;;;;;;;;;2044082;29;20517;-58
2021/04/12 04:56:55;;;;;;;7.90;7.20;;;;;;;;;;2039994;29;21090;-56
2021/04/12 04:58:10;;;;;;;8.30;7.53;;;;;;;;;;2035065;29;20425;-56
2021/04/12 04:59:33;;;;;;;10.03;6.73;;;;;;;;;;2045577;29;20444;-57
2021/04/12 05:00:52;;;;;;;9.33;7.40;;;;;;;;;;2039169;29;20432;-58
2021/04/12 05:02:10;;;;;;;13.50;7.43;;;;;;;;;;2035219;29;20421;-59
2021/04/12 05:03:14;;;;;;;8.73;7.10;;;;;;;;;;2039795;29;20416;-57
2021/04/12 05:04:26;;;;;;;13.20;7.07;;;;;;;;;;2041302;28;20485;-57
2021/04/12 05:05:35;;;;;;;9.53;7.57;;;;;;;;;;2043369;29;20418;-58
2021/04/12 05:06:54;;;;;;;9.73;7.87;;;;;;;;;;2042892;29;20471;-59
2021/04/12 05:08:06;;;;;;;7.90;7.10;;;;;;;;;;2043589;29;20440;-59
2021/04/12 05:09:19;;;;;;;11.00;7.70;;;;;;;;;;2043313;29;20449;-60
2021/04/12 05:10:19;;;;;;;15.57;7.23;;;;;;;;;;2047157;29;20413;-59
2021/04/12 05:11:40;;;;;;;12.23;7.93;;;;;;;;;;2046913;29;20521;-59
2021/04/12 05:12:49;;;;;;;8.43;7.47;;;;;;;;;;2040415;29;20179;-57
2021/04/12 05:14:08;;;;;;;12.10;7.47;;;;;;;;;;2042655;29;20444;-57
2021/04/12 05:15:08;;;;;;;10.77;7.73;;;;;;;;;;2040658;29;20429;-58
2021/04/12 05:16:19;;;;;;;10.67;7.47;;;;;;;;;;2041356;29;20443;-59
2021/04/12 05:17:38;;;;;;;11.13;7.53;;;;;;;;;;2047762;28;20171;-59
2021/04/12 05:18:44;;;;;;;8.97;7.13;;;;;;;;;;2042800;29;20516;-60
2021/04/12 05:19:44;;;;;;;8.43;6.53;;;;;;;;;;2051359;29;20482;-59
2021/04/12 05:20:59;;;;;;;8.53;7.70;;;;;;;;;;2043280;29;20419;-58
2021/04/12 05:22:15;;;;;;;9.93;7.97;;;;;;;;;;2036319;29;20223;-60
2021/04/12 05:23:32;;;;;;;9.20;8.20;;;;;;;;;;2040114;29;20414;-59
2021/04/12 05:24:42;;;;;;;10.83;8.07;;;;;;;;;;2043255;29;20468;-57
2021/04/12 05:25:54;;;;;;;9.60;6.87;;;;;;;;;;2056817;28;20491;-55
2021/04/12 05:26:58;;;;;;;14.17;7.80;;;;;;;;;;2052776;28;20424;-57
2021/04/12 05:28:06;;;;;;;9.63;6.70;;;;;;;;;;2049240;28;20420;-57
2021/04/12 05:29:12;;;;;;;8.63;6.77;;;;;;;;;;2051739;28;20405;-55
2021/04/12 05:30:26;;;;;;;8.40;6.83;;;;;;;;;;2052375;28;20419;-56
2021/04/12 05:31:44;;;;;;;8.73;7.43;;;;;;;;;;2046372;28;20436;-59
2021/04/12 05:32:53;;;;;;;10.07;7.30;;;;;;;;;;2049866;29;20405;-61
2021/04/12 05:34:09;;;;;;;9.90;7.23;;;;;;;;;;2036568;29;20466;-56
2021/04/12 05:35:28;;;;;;;10.60;7.40;;;;;;;;;;2047718;28;20397;-55
2021/04/12 05:36:35;;;;;;;10.33;7.20;;;;;;;;;;2041540;29;20894;-58
2021/04/12 05:37:50;;;;;;;10.57;7.47;;;;;;;;;;2047001;29;20413;-57
2021/04/12 05:39:09;;;;;;;10.63;7.90;;;;;;;;;;2038835;29;20515;-53
2021/04/12 05:40:25;;;;;;;9.77;7.53;;;;;;;;;;2041112;29;20413;-57
2021/04/12 05:41:38;;;;;;;8.10;7.10;;;;;;;;;;2039087;29;20502;-59
2021/04/12 05:42:44;;;;;;;9.83;6.47;;;;;;;;;;2042299;29;20402;-54
2021/04/12 05:44:03;;;;;;;8.20;7.30;;;;;;;;;;2040634;29;20471;-54
2021/04/12 05:45:09;;;;;;;9.93;7.13;;;;;;;;;;2043392;29;20429;-54
2021/04/12 05:46:21;;;;;;;8.50;6.70;;;;;;;;;;2036754;29;20410;-58
2021/04/12 05:47:36;;;;;;;11.33;7.13;;;;;;;;;;2042428;29;20449;-58
2021/04/12 05:48:52;;;;;;;11.53;7.07;;;;;;;;;;2039273;29;20502;-59
2021/04/12 05:49:58;;;;;;;7.90;7.00;;;;;;;;;;2034660;29;20919;-54
2021/04/12 05:51:24;;;;;;;7.93;6.90;;;;;;;;;;2050723;28;20913;-58
2021/04/12 05:52:43;;;;;;;7.50;6.80;;;;;;;;;;2019959;28;20528;-55
2021/04/12 05:53:59;;;;;;;7.73;6.93;;;;;;;;;;2049677;28;20417;-56
2021/04/12 05:55:08;;;;;;;7.90;7.10;;;;;;;;;;2044894;29;20816;-53
2021/04/12 05:56:09;;;;;;;10.23;7.67;;;;;;;;;;2039063;29;20432;-56
2021/04/12 05:57:19;;;;;;;7.17;6.47;;;;;;;;;;2041197;29;20437;-53
2021/04/12 05:58:34;;;;;;;8.13;7.33;;;;;;;;;;2034334;29;20192;-53
2021/04/12 05:59:50;;;;;;;8.27;6.73;;;;;;;;;;2039875;29;20414;-54
2021/04/12 06:01:00;;;;;;;8.07;7.10;;;;;;;;;;2037996;29;20421;-57
2021/04/12 06:02:18;;;;;;;10.17;7.07;;;;;;;;;;2034239;29;20474;-56
2021/04/12 06:03:22;;;;;;;8.40;6.00;;;;;;;;;;2030652;29;20432;-53
2021/04/12 06:04:25;;;;;;;11.30;6.47;;;;;;;;;;2042701;29;20921;-52
2021/04/12 06:05:33;;;;;;;8.83;7.00;;;;;;;;;;2041610;29;20502;-52
2021/04/12 06:06:36;;;;;;;8.73;6.83;;;;;;;;;;2041053;29;20204;-55
2021/04/12 06:07:55;;;;;;;9.10;6.93;;;;;;;;;;2038521;29;20993;-54
2021/04/12 06:08:55;;;;;;;9.10;6.33;;;;;;;;;;2034682;29;20992;-60
2021/04/12 06:09:58;;;;;;;11.67;7.00;;;;;;;;;;2037469;29;20252;-56
2021/04/12 06:11:01;;;;;;;7.27;6.57;;;;;;;;;;2041193;29;20184;-55
2021/04/12 06:12:20;;;;;;;13.30;7.13;;;;;;;;;;2040871;29;20481;-55
2021/04/12 06:13:23;;;;;;;9.83;7.50;;;;;;;;;;2043088;29;20448;-58
2021/04/12 06:14:33;;;;;;;7.93;6.97;;;;;;;;;;2048830;29;20415;-56
2021/04/12 06:15:51;;;;;;;8.90;6.93;;;;;;;;;;2037067;29;20430;-56
2021/04/12 06:17:05;;;;;;;9.07;6.20;;;;;;;;;;2041105;29;20429;-59
2021/04/12 06:18:24;;;;;;;9.30;6.47;;;;;;;;;;2044891;28;20444;-59
2021/04/12 06:19:36;;;;;;;8.47;6.87;;;;;;;;;;2049157;29;20459;-58
2021/04/12 06:21:01;;;;;;;9.40;6.57;;;;;;;;;;2049967;28;20429;-58
2021/04/12 06:22:20;;;;;;;6.83;6.07;;;;;;;;;;2045409;29;20230;-58
2021/04/12 06:23:26;;;;;;;10.60;6.60;;;;;;;;;;2044204;29;20468;-56
2021/04/12 06:24:45;;;;;;;6.97;6.27;;;;;;;;;;2039627;29;20960;-60
2021/04/12 06:26:04;;;;;;;7.60;6.70;;;;;;;;;;2040449;29;21009;-58
2021/04/12 06:27:23;;;;;;;11.97;6.40;;;;;;;;;;2041937;29;20464;-61
2021/04/12 06:28:38;;;;;;;7.13;6.37;;;;;;;;;;2043756;29;20453;-58
2021/04/12 06:29:41;;;;;;;7.63;6.13;;;;;;;;;;2043269;29;20433;-59
2021/04/12 06:30:42;;;;;;;6.83;6.13;;;;;;;;;;2039482;29;20192;-60
2021/04/12 06:32:00;;;;;;;7.03;6.33;;;;;;;;;;2050871;29;20492;-58
2021/04/12 06:33:12;;;;;;;7.27;5.37;;;;;;;;;;2039747;29;20156;-59
2021/04/12 06:34:35;;;;;;;7.97;5.87;;;;;;;;;;2047944;29;20228;-58
2021/04/12 06:35:45;;;;;;;8.13;6.30;;;;;;;;;;2052638;28;20197;-58
2021/04/12 06:36:47;;;;;;;8.67;6.53;;;;;;;;;;2043513;28;20187;-57
2021/04/12 06:37:53;;;;;;;10.47;6.00;;;;;;;;;;2043319;29;20427;-59
2021/04/12 06:39:02;;;;;;;6.73;6.10;;;;;;;;;;2037849;29;20815;-62
2021/04/12 06:40:14;;;;;;;6.10;5.60;;;;;;;;;;2043605;29;20457;-59
2021/04/12 06:41:14;;;;;;;7.77;6.30;;;;;;;;;;2048236;29;20186;-57
2021/04/12 06:42:33;;;;;;;9.57;6.73;;;;;;;;;;2044559;28;20541;-57
2021/04/12 06:43:52;;;;;;;8.50;5.83;;;;;;;;;;2045946;29;20233;-57
2021/04/12 06:45:11;;;;;;;6.57;5.83;;;;;;;;;;2036323;29;20493;-58
2021/04/12 06:46:34;;;;;;;6.60;5.90;;;;;;;;;;2045698;29;20496;-58
2021/04/12 06:47:46;;;;;;;7.93;5.37;;;;;;;;;;2012914;29;20734;-57
2021/04/12 06:48:58;;;;;;;6.00;5.50;;;;;;;;;;2045370;29;20258;-57
2021/04/12 06:50:17;;;;;;;6.63;5.10;;;;;;;;;;2037174;29;20427;-59
2021/04/12 06:51:26;;;;;;;6.20;5.60;;;;;;;;;;2045967;29;20456;-54
2021/04/12 06:52:44;;;;;;;7.13;4.77;;;;;;;;;;2037412;29;20839;-56
2021/04/12 06:54:08;;;;;;;8.00;5.63;;;;;;;;;;2047507;29;20183;-57
2021/04/12 06:55:18;;;;;;;5.83;5.27;;;;;;;;;;2040950;29;20426;-57
2021/04/12 06:56:19;;;;;;;7.50;5.10;;;;;;;;;;2044993;29;20187;-58
2021/04/12 06:57:34;;;;;;;5.83;5.20;;;;;;;;;;2046455;29;20186;-58
2021/04/12 06:58:43;;;;;;;5.57;5.07;;;;;;;;;;2044367;28;20215;-56
2021/04/12 06:59:46;;;;;;;6.10;5.50;;;;;;;;;;2049786;29;20183;-58
2021/04/12 07:01:06;;;;;;;7.90;5.33;;;;;;;;;;2043303;28;20206;-59
2021/04/12 07:02:27;;;;;;;6.90;4.77;;;;;;;;;;2038775;29;20200;-59
2021/04/12 07:03:46;;;;;;;9.63;5.30;;;;;;;;;;2044848;29;20206;-59
2021/04/12 07:05:05;;;;;;;5.07;4.67;;;;;;;;;;2042870;29;20196;-59
2021/04/12 07:06:08;;;;;;;6.00;4.73;;;;;;;;;;2043987;29;20656;-59
2021/04/12 07:07:27;;;;;;;6.33;5.03;;;;;;;;;;2044022;29;20915;-61
2021/04/12 07:08:36;;;;;;;12.60;5.53;;;;;;;;;;2045782;29;20175;-60